sensor_id;sensor_type;location;lat;lon;timestamp;pressure;altitude;pressure_sealevel;temperature;humidity
25420;BME280;13354;48.174;11.566;2023-04-30T00:00:18;95864.00;;;13.00;73.31
25420;BME280;13354;48.174;11.566;2023-04-30T00:02:43;95863.78;;;12.95;73.86
25420;BME280;13354;48.174;11.566;2023-04-30T00:05:09;95874.44;;;12.89;74.36
25420;BME280;13354;48.174;11.566;2023-04-30T00:07:34;95865.00;;;12.86;74.57
25420;BME280;13354;48.174;11.566;2023-04-30T00:09:59;95863.56;;;12.84;74.63
25420;BME280;13354;48.174;11.566;2023-04-30T00:12:24;95865.00;;;12.79;74.38
25420;BME280;13354;48.174;11.566;2023-04-30T00:14:49;95867.00;;;12.77;75.34
25420;BME280;13354;48.174;11.566;2023-04-30T00:17:15;95859.88;;;12.78;75.17
25420;BME280;13354;48.174;11.566;2023-04-30T00:19:41;95869.91;;;12.82;74.40
25420;BME280;13354;48.174;11.566;2023-04-30T00:22:06;95866.81;;;12.79;74.15
25420;BME280;13354;48.174;11.566;2023-04-30T00:24:31;95870.31;;;12.79;74.02
25420;BME280;13354;48.174;11.566;2023-04-30T00:26:57;95871.31;;;12.78;74.06
25420;BME280;13354;48.174;11.566;2023-04-30T00:29:22;95873.75;;;12.73;75.06
25420;BME280;13354;48.174;11.566;2023-04-30T00:31:47;95875.81;;;12.71;74.78
25420;BME280;13354;48.174;11.566;2023-04-30T00:34:12;95878.47;;;12.71;75.17
25420;BME280;13354;48.174;11.566;2023-04-30T00:36:38;95881.13;;;12.71;74.72
25420;BME280;13354;48.174;11.566;2023-04-30T00:39:04;95875.59;;;12.73;75.00
25420;BME280;13354;48.174;11.566;2023-04-30T00:41:30;95885.41;;;12.72;75.09
25420;BME280;13354;48.174;11.566;2023-04-30T00:43:56;95883.13;;;12.63;75.45
25420;BME280;13354;48.174;11.566;2023-04-30T00:46:21;95881.91;;;12.65;75.16
25420;BME280;13354;48.174;11.566;2023-04-30T00:48:46;95887.00;;;12.60;76.15
25420;BME280;13354;48.174;11.566;2023-04-30T00:51:11;95886.63;;;12.63;75.41
25420;BME280;13354;48.174;11.566;2023-04-30T00:53:37;95884.16;;;12.68;74.37
25420;BME280;13354;48.174;11.566;2023-04-30T00:56:04;95885.78;;;12.56;74.81
25420;BME280;13354;48.174;11.566;2023-04-30T00:58:30;95880.63;;;12.48;75.62
25420;BME280;13354;48.174;11.566;2023-04-30T01:00:55;95885.31;;;12.46;75.93
25420;BME280;13354;48.174;11.566;2023-04-30T01:03:20;95890.00;;;12.44;75.95
25420;BME280;13354;48.174;11.566;2023-04-30T01:05:46;95887.56;;;12.42;76.70
25420;BME280;13354;48.174;11.566;2023-04-30T01:08:12;95891.19;;;12.35;76.28
25420;BME280;13354;48.174;11.566;2023-04-30T01:10:40;95890.56;;;12.32;76.73
25420;BME280;13354;48.174;11.566;2023-04-30T01:13:11;95897.72;;;12.32;77.15
25420;BME280;13354;48.174;11.566;2023-04-30T01:15:39;95899.94;;;12.28;77.62
25420;BME280;13354;48.174;11.566;2023-04-30T01:18:28;95904.66;;;12.33;76.91
25420;BME280;13354;48.174;11.566;2023-04-30T01:20:52;95899.72;;;12.23;77.55
25420;BME280;13354;48.174;11.566;2023-04-30T01:25:50;95899.72;;;12.23;77.70
25420;BME280;13354;48.174;11.566;2023-04-30T01:28:17;95905.41;;;12.20;77.85
25420;BME280;13354;48.174;11.566;2023-04-30T01:30:46;95906.44;;;12.19;78.11
25420;BME280;13354;48.174;11.566;2023-04-30T01:33:12;95906.00;;;12.16;78.25
25420;BME280;13354;48.174;11.566;2023-04-30T01:40:39;95903.59;;;12.21;78.20
25420;BME280;13354;48.174;11.566;2023-04-30T01:43:23;95905.22;;;12.22;78.01
25420;BME280;13354;48.174;11.566;2023-04-30T01:46:14;95900.94;;;12.21;77.63
25420;BME280;13354;48.174;11.566;2023-04-30T01:48:51;95911.94;;;12.18;77.91
25420;BME280;13354;48.174;11.566;2023-04-30T01:51:24;95903.94;;;12.11;77.82
25420;BME280;13354;48.174;11.566;2023-04-30T01:53:52;95905.59;;;12.12;78.23
25420;BME280;13354;48.174;11.566;2023-04-30T01:56:22;95908.81;;;12.07;78.94
25420;BME280;13354;48.174;11.566;2023-04-30T01:58:51;95911.28;;;12.09;78.43
25420;BME280;13354;48.174;11.566;2023-04-30T02:01:27;95900.03;;;12.07;78.68
25420;BME280;13354;48.174;11.566;2023-04-30T02:03:52;95903.88;;;11.98;79.01
25420;BME280;13354;48.174;11.566;2023-04-30T02:06:18;95906.31;;;11.99;78.79
25420;BME280;13354;48.174;11.566;2023-04-30T02:08:43;95905.28;;;11.94;78.58
25420;BME280;13354;48.174;11.566;2023-04-30T02:11:08;95909.94;;;11.92;79.12
25420;BME280;13354;48.174;11.566;2023-04-30T02:13:33;95914.44;;;11.91;79.04
25420;BME280;13354;48.174;11.566;2023-04-30T02:15:58;95918.72;;;11.92;79.32
25420;BME280;13354;48.174;11.566;2023-04-30T02:18:24;95915.44;;;11.90;79.47
25420;BME280;13354;48.174;11.566;2023-04-30T02:20:49;95914.44;;;11.91;79.77
25420;BME280;13354;48.174;11.566;2023-04-30T02:23:14;95915.06;;;11.93;79.70
25420;BME280;13354;48.174;11.566;2023-04-30T02:25:39;95917.09;;;11.91;79.45
25420;BME280;13354;48.174;11.566;2023-04-30T02:28:05;95913.78;;;11.89;79.39
25420;BME280;13354;48.174;11.566;2023-04-30T02:30:30;95912.00;;;11.90;79.56
25420;BME280;13354;48.174;11.566;2023-04-30T02:32:55;95916.28;;;11.91;79.89
25420;BME280;13354;48.174;11.566;2023-04-30T02:35:20;95917.72;;;11.93;79.77
25420;BME280;13354;48.174;11.566;2023-04-30T02:37:46;95920.59;;;11.98;79.66
25420;BME280;13354;48.174;11.566;2023-04-30T02:40:11;95921.66;;;12.04;79.11
25420;BME280;13354;48.174;11.566;2023-04-30T02:42:36;95923.91;;;12.00;78.93
25420;BME280;13354;48.174;11.566;2023-04-30T02:45:01;95921.03;;;12.02;78.67
25420;BME280;13354;48.174;11.566;2023-04-30T02:47:27;95922.44;;;11.98;78.70
25420;BME280;13354;48.174;11.566;2023-04-30T02:49:52;95924.47;;;11.96;79.07
25420;BME280;13354;48.174;11.566;2023-04-30T02:52:17;95929.59;;;11.97;78.87
25420;BME280;13354;48.174;11.566;2023-04-30T02:54:42;95931.81;;;11.94;78.71
25420;BME280;13354;48.174;11.566;2023-04-30T02:57:07;95938.53;;;11.96;78.65
25420;BME280;13354;48.174;11.566;2023-04-30T02:59:33;95933.00;;;11.91;79.01
25420;BME280;13354;48.174;11.566;2023-04-30T03:01:58;95935.88;;;11.96;78.92
25420;BME280;13354;48.174;11.566;2023-04-30T03:04:23;95935.72;;;11.98;78.67
25420;BME280;13354;48.174;11.566;2023-04-30T03:06:49;95933.50;;;12.01;78.45
25420;BME280;13354;48.174;11.566;2023-04-30T03:09:14;95932.41;;;11.96;78.62
25420;BME280;13354;48.174;11.566;2023-04-30T03:11:40;95926.50;;;11.94;78.86
25420;BME280;13354;48.174;11.566;2023-04-30T03:14:05;95932.56;;;11.88;78.96
25420;BME280;13354;48.174;11.566;2023-04-30T03:16:30;95928.00;;;11.81;79.36
25420;BME280;13354;48.174;11.566;2023-04-30T03:18:55;95916.88;;;11.86;79.38
25420;BME280;13354;48.174;11.566;2023-04-30T03:21:21;95927.56;;;11.78;79.15
25420;BME280;13354;48.174;11.566;2023-04-30T03:23:46;95921.22;;;11.72;79.32
25420;BME280;13354;48.174;11.566;2023-04-30T03:26:11;95927.72;;;11.70;79.08
25420;BME280;13354;48.174;11.566;2023-04-30T03:28:36;95918.50;;;11.66;79.26
25420;BME280;13354;48.174;11.566;2023-04-30T03:31:02;95913.84;;;11.68;79.43
25420;BME280;13354;48.174;11.566;2023-04-30T03:33:29;95913.25;;;11.72;79.33
25420;BME280;13354;48.174;11.566;2023-04-30T03:35:55;95914.38;;;11.56;79.10
25420;BME280;13354;48.174;11.566;2023-04-30T03:38:20;95916.59;;;11.53;79.58
25420;BME280;13354;48.174;11.566;2023-04-30T03:40:45;95908.81;;;11.51;79.59
25420;BME280;13354;48.174;11.566;2023-04-30T03:43:10;95908.63;;;11.53;79.66
25420;BME280;13354;48.174;11.566;2023-04-30T03:45:36;95914.03;;;11.45;79.55
25420;BME280;13354;48.174;11.566;2023-04-30T03:48:01;95911.91;;;11.55;79.31
25420;BME280;13354;48.174;11.566;2023-04-30T03:50:26;95914.75;;;11.53;79.24
25420;BME280;13354;48.174;11.566;2023-04-30T03:52:51;95914.97;;;11.58;79.02
25420;BME280;13354;48.174;11.566;2023-04-30T03:55:16;95907.03;;;11.58;78.86
25420;BME280;13354;48.174;11.566;2023-04-30T03:57:42;95900.16;;;11.64;78.73
25420;BME280;13354;48.174;11.566;2023-04-30T04:00:08;95897.50;;;11.64;78.22
25420;BME280;13354;48.174;11.566;2023-04-30T04:02:37;95901.94;;;11.57;77.99
25420;BME280;13354;48.174;11.566;2023-04-30T04:05:03;95898.47;;;11.56;78.25
25420;BME280;13354;48.174;11.566;2023-04-30T04:07:28;95903.56;;;11.58;78.00
25420;BME280;13354;48.174;11.566;2023-04-30T04:09:53;95895.28;;;11.68;77.56
25420;BME280;13354;48.174;11.566;2023-04-30T04:12:19;95898.75;;;11.68;77.22
25420;BME280;13354;48.174;11.566;2023-04-30T04:14:44;95893.50;;;11.75;76.81
25420;BME280;13354;48.174;11.566;2023-04-30T04:17:10;95902.97;;;11.63;77.25
25420;BME280;13354;48.174;11.566;2023-04-30T04:19:35;95901.13;;;11.63;77.01
25420;BME280;13354;48.174;11.566;2023-04-30T04:22:01;95902.91;;;11.56;77.46
25420;BME280;13354;48.174;11.566;2023-04-30T04:24:26;95913.50;;;11.49;78.18
25420;BME280;13354;48.174;11.566;2023-04-30T04:26:52;95915.06;;;11.44;78.64
25420;BME280;13354;48.174;11.566;2023-04-30T04:29:18;95922.13;;;11.36;79.16
25420;BME280;13354;48.174;11.566;2023-04-30T04:31:43;95925.16;;;11.33;79.28
25420;BME280;13354;48.174;11.566;2023-04-30T04:34:09;95934.59;;;11.36;79.48
25420;BME280;13354;48.174;11.566;2023-04-30T04:36:34;95933.75;;;11.35;79.43
25420;BME280;13354;48.174;11.566;2023-04-30T04:38:59;95939.25;;;11.34;79.70
25420;BME280;13354;48.174;11.566;2023-04-30T04:41:30;95944.53;;;11.34;79.54
25420;BME280;13354;48.174;11.566;2023-04-30T04:44:00;95938.25;;;11.35;79.80
25420;BME280;13354;48.174;11.566;2023-04-30T04:46:28;95944.00;;;11.39;80.17
25420;BME280;13354;48.174;11.566;2023-04-30T04:48:54;95941.50;;;11.37;79.90
25420;BME280;13354;48.174;11.566;2023-04-30T04:51:19;95950.09;;;11.39;79.84
25420;BME280;13354;48.174;11.566;2023-04-30T04:53:45;95949.16;;;11.47;79.22
25420;BME280;13354;48.174;11.566;2023-04-30T04:56:11;95940.38;;;11.46;78.41
25420;BME280;13354;48.174;11.566;2023-04-30T04:58:36;95942.97;;;11.40;77.67
25420;BME280;13354;48.174;11.566;2023-04-30T05:01:02;95947.41;;;11.32;77.44
25420;BME280;13354;48.174;11.566;2023-04-30T05:03:29;95948.66;;;11.36;77.71
25420;BME280;13354;48.174;11.566;2023-04-30T05:05:55;95944.59;;;11.41;77.93
25420;BME280;13354;48.174;11.566;2023-04-30T05:08:20;95949.66;;;11.35;77.65
25420;BME280;13354;48.174;11.566;2023-04-30T05:10:46;95948.66;;;11.36;77.42
25420;BME280;13354;48.174;11.566;2023-04-30T05:13:11;95951.88;;;11.32;77.63
25420;BME280;13354;48.174;11.566;2023-04-30T05:15:36;95951.50;;;11.35;77.92
25420;BME280;13354;48.174;11.566;2023-04-30T05:18:01;95952.50;;;11.34;78.34
25420;BME280;13354;48.174;11.566;2023-04-30T05:20:27;95957.78;;;11.34;79.01
25420;BME280;13354;48.174;11.566;2023-04-30T05:22:52;95956.91;;;11.48;78.29
25420;BME280;13354;48.174;11.566;2023-04-30T05:25:17;95961.22;;;11.49;77.83
25420;BME280;13354;48.174;11.566;2023-04-30T05:27:42;95961.97;;;11.43;76.99
25420;BME280;13354;48.174;11.566;2023-04-30T05:30:08;95967.13;;;11.51;76.08
25420;BME280;13354;48.174;11.566;2023-04-30T05:32:33;95964.41;;;11.45;76.49
25420;BME280;13354;48.174;11.566;2023-04-30T05:34:59;95965.50;;;11.50;76.64
25420;BME280;13354;48.174;11.566;2023-04-30T05:37:24;95964.31;;;11.53;76.20
25420;BME280;13354;48.174;11.566;2023-04-30T05:39:49;95968.97;;;11.51;77.13
25420;BME280;13354;48.174;11.566;2023-04-30T05:42:14;95969.56;;;11.46;77.54
25420;BME280;13354;48.174;11.566;2023-04-30T05:44:40;95968.34;;;11.49;77.65
25420;BME280;13354;48.174;11.566;2023-04-30T05:47:05;95960.06;;;11.58;76.62
25420;BME280;13354;48.174;11.566;2023-04-30T05:49:30;95965.44;;;11.44;77.07
25420;BME280;13354;48.174;11.566;2023-04-30T05:51:56;95963.44;;;11.46;77.50
25420;BME280;13354;48.174;11.566;2023-04-30T05:54:21;95965.88;;;11.47;77.48
25420;BME280;13354;48.174;11.566;2023-04-30T05:56:47;95974.50;;;11.56;77.98
25420;BME280;13354;48.174;11.566;2023-04-30T05:59:12;95961.53;;;11.61;78.56
25420;BME280;13354;48.174;11.566;2023-04-30T06:01:37;95965.44;;;11.87;77.15
25420;BME280;13354;48.174;11.566;2023-04-30T06:04:03;95953.84;;;11.73;74.77
25420;BME280;13354;48.174;11.566;2023-04-30T06:06:29;95962.63;;;11.73;74.63
25420;BME280;13354;48.174;11.566;2023-04-30T06:08:55;95964.66;;;11.71;75.04
25420;BME280;13354;48.174;11.566;2023-04-30T06:11:20;95951.78;;;11.68;74.64
25420;BME280;13354;48.174;11.566;2023-04-30T06:13:46;95956.28;;;11.68;75.11
25420;BME280;13354;48.174;11.566;2023-04-30T06:16:12;95950.00;;;11.75;74.59
25420;BME280;13354;48.174;11.566;2023-04-30T06:18:37;95955.88;;;11.71;75.19
25420;BME280;13354;48.174;11.566;2023-04-30T06:21:02;95948.75;;;11.71;75.18
25420;BME280;13354;48.174;11.566;2023-04-30T06:23:27;95954.53;;;11.81;75.64
25420;BME280;13354;48.174;11.566;2023-04-30T06:25:53;95956.72;;;11.99;76.28
25420;BME280;13354;48.174;11.566;2023-04-30T06:28:18;95953.00;;;12.22;75.13
25420;BME280;13354;48.174;11.566;2023-04-30T06:30:43;95943.88;;;12.79;72.54
25420;BME280;13354;48.174;11.566;2023-04-30T06:33:08;95952.88;;;13.52;69.75
25420;BME280;13354;48.174;11.566;2023-04-30T06:35:34;95941.16;;;14.20;67.67
25420;BME280;13354;48.174;11.566;2023-04-30T06:37:59;95945.06;;;15.27;64.31
25420;BME280;13354;48.174;11.566;2023-04-30T06:40:25;95943.16;;;16.16;60.95
25420;BME280;13354;48.174;11.566;2023-04-30T06:42:50;95945.03;;;16.52;57.51
25420;BME280;13354;48.174;11.566;2023-04-30T06:45:15;95937.63;;;16.36;57.07
25420;BME280;13354;48.174;11.566;2023-04-30T06:47:40;95944.81;;;15.92;58.25
25420;BME280;13354;48.174;11.566;2023-04-30T06:50:07;95948.38;;;15.54;58.96
25420;BME280;13354;48.174;11.566;2023-04-30T06:52:32;95950.13;;;15.04;60.16
25420;BME280;13354;48.174;11.566;2023-04-30T06:54:58;95948.72;;;14.94;61.08
25420;BME280;13354;48.174;11.566;2023-04-30T06:57:23;95951.22;;;14.89;61.34
25420;BME280;13354;48.174;11.566;2023-04-30T06:59:49;95952.56;;;14.54;63.13
25420;BME280;13354;48.174;11.566;2023-04-30T07:02:15;95949.72;;;14.55;62.89
25420;BME280;13354;48.174;11.566;2023-04-30T07:04:40;95944.78;;;14.52;62.91
25420;BME280;13354;48.174;11.566;2023-04-30T07:07:06;95946.56;;;14.65;63.18
25420;BME280;13354;48.174;11.566;2023-04-30T07:09:31;95945.34;;;14.67;62.57
25420;BME280;13354;48.174;11.566;2023-04-30T07:11:57;95939.84;;;15.39;60.65
25420;BME280;13354;48.174;11.566;2023-04-30T07:14:22;95948.91;;;15.94;59.80
25420;BME280;13354;48.174;11.566;2023-04-30T07:16:50;95939.94;;;17.48;55.67
25420;BME280;13354;48.174;11.566;2023-04-30T07:19:16;95941.81;;;18.24;53.63
25420;BME280;13354;48.174;11.566;2023-04-30T07:21:41;95935.28;;;18.20;52.45
25420;BME280;13354;48.174;11.566;2023-04-30T07:24:06;95930.09;;;18.77;51.62
25420;BME280;13354;48.174;11.566;2023-04-30T07:26:32;95938.53;;;19.55;49.18
25420;BME280;13354;48.174;11.566;2023-04-30T07:28:57;95931.28;;;19.67;48.26
25420;BME280;13354;48.174;11.566;2023-04-30T07:31:22;95935.50;;;19.80;48.65
25420;BME280;13354;48.174;11.566;2023-04-30T07:33:47;95940.22;;;20.07;47.91
25420;BME280;13354;48.174;11.566;2023-04-30T07:36:14;95935.03;;;19.54;48.76
25420;BME280;13354;48.174;11.566;2023-04-30T07:38:40;95933.50;;;19.59;48.99
25420;BME280;13354;48.174;11.566;2023-04-30T07:41:05;95936.25;;;19.30;48.32
25420;BME280;13354;48.174;11.566;2023-04-30T07:43:30;95934.38;;;19.30;48.48
25420;BME280;13354;48.174;11.566;2023-04-30T07:45:55;95934.91;;;18.75;49.50
25420;BME280;13354;48.174;11.566;2023-04-30T07:48:21;95941.72;;;17.66;51.55
25420;BME280;13354;48.174;11.566;2023-04-30T07:50:46;95936.28;;;17.72;52.51
25420;BME280;13354;48.174;11.566;2023-04-30T07:53:12;95932.47;;;17.80;52.61
25420;BME280;13354;48.174;11.566;2023-04-30T07:55:37;95923.09;;;17.71;52.73
25420;BME280;13354;48.174;11.566;2023-04-30T07:58:02;95923.38;;;17.93;52.80
25420;BME280;13354;48.174;11.566;2023-04-30T08:00:28;95925.97;;;17.99;52.32
25420;BME280;13354;48.174;11.566;2023-04-30T08:02:54;95921.56;;;17.93;52.45
25420;BME280;13354;48.174;11.566;2023-04-30T08:05:20;95929.34;;;17.83;52.74
25420;BME280;13354;48.174;11.566;2023-04-30T08:07:45;95926.00;;;17.57;53.77
25420;BME280;13354;48.174;11.566;2023-04-30T08:10:10;95929.22;;;17.48;54.47
25420;BME280;13354;48.174;11.566;2023-04-30T08:12:36;95934.06;;;16.79;55.43
25420;BME280;13354;48.174;11.566;2023-04-30T08:15:02;95932.06;;;16.56;56.50
25420;BME280;13354;48.174;11.566;2023-04-30T08:17:28;95940.84;;;16.19;57.54
25420;BME280;13354;48.174;11.566;2023-04-30T08:19:54;95937.28;;;16.07;58.53
25420;BME280;13354;48.174;11.566;2023-04-30T08:22:19;95926.28;;;15.97;58.13
25420;BME280;13354;48.174;11.566;2023-04-30T08:24:44;95932.72;;;15.89;59.04
25420;BME280;13354;48.174;11.566;2023-04-30T08:27:10;95932.53;;;15.59;60.85
25420;BME280;13354;48.174;11.566;2023-04-30T08:29:35;95929.50;;;15.49;60.65
25420;BME280;13354;48.174;11.566;2023-04-30T08:32:01;95933.19;;;15.23;61.29
25420;BME280;13354;48.174;11.566;2023-04-30T08:34:28;95938.34;;;15.18;61.18
25420;BME280;13354;48.174;11.566;2023-04-30T08:36:53;95934.97;;;15.36;60.15
25420;BME280;13354;48.174;11.566;2023-04-30T08:39:18;95928.34;;;15.38;60.70
25420;BME280;13354;48.174;11.566;2023-04-30T08:41:43;95939.38;;;15.49;61.41
25420;BME280;13354;48.174;11.566;2023-04-30T08:44:10;95934.91;;;15.74;60.19
25420;BME280;13354;48.174;11.566;2023-04-30T08:46:36;95936.16;;;15.72;59.79
25420;BME280;13354;48.174;11.566;2023-04-30T08:49:03;95934.25;;;15.47;59.81
25420;BME280;13354;48.174;11.566;2023-04-30T08:51:32;95933.59;;;15.52;60.35
25420;BME280;13354;48.174;11.566;2023-04-30T08:53:58;95941.06;;;15.43;59.43
25420;BME280;13354;48.174;11.566;2023-04-30T08:56:23;95929.03;;;15.65;59.56
25420;BME280;13354;48.174;11.566;2023-04-30T08:58:49;95930.16;;;16.19;58.64
25420;BME280;13354;48.174;11.566;2023-04-30T09:01:14;95936.19;;;15.90;57.89
25420;BME280;13354;48.174;11.566;2023-04-30T09:03:40;95943.19;;;15.91;58.21
25420;BME280;13354;48.174;11.566;2023-04-30T09:06:05;95937.63;;;15.92;58.12
25420;BME280;13354;48.174;11.566;2023-04-30T09:08:47;95938.66;;;16.16;57.84
25420;BME280;13354;48.174;11.566;2023-04-30T09:14:07;95929.06;;;17.01;56.74
25420;BME280;13354;48.174;11.566;2023-04-30T09:16:48;95929.22;;;17.06;55.46
25420;BME280;13354;48.174;11.566;2023-04-30T09:19:24;95930.50;;;17.45;53.84
25420;BME280;13354;48.174;11.566;2023-04-30T09:21:49;95926.44;;;18.08;54.52
25420;BME280;13354;48.174;11.566;2023-04-30T09:24:15;95927.13;;;18.15;52.18
25420;BME280;13354;48.174;11.566;2023-04-30T09:26:41;95939.81;;;17.96;52.78
25420;BME280;13354;48.174;11.566;2023-04-30T09:29:06;95926.53;;;18.37;51.57
25420;BME280;13354;48.174;11.566;2023-04-30T09:31:35;95937.16;;;18.31;50.73
25420;BME280;13354;48.174;11.566;2023-04-30T09:34:00;95932.94;;;18.00;51.58
25420;BME280;13354;48.174;11.566;2023-04-30T09:36:26;95930.50;;;17.87;52.17
25420;BME280;13354;48.174;11.566;2023-04-30T09:38:51;95934.56;;;17.78;52.37
25420;BME280;13354;48.174;11.566;2023-04-30T09:41:20;95930.91;;;17.30;50.98
25420;BME280;13354;48.174;11.566;2023-04-30T09:43:47;95932.97;;;17.17;51.65
25420;BME280;13354;48.174;11.566;2023-04-30T09:46:12;95936.81;;;16.90;53.29
25420;BME280;13354;48.174;11.566;2023-04-30T09:48:40;95939.25;;;16.92;54.31
25420;BME280;13354;48.174;11.566;2023-04-30T09:51:05;95927.97;;;16.72;54.17
25420;BME280;13354;48.174;11.566;2023-04-30T09:53:31;95929.41;;;16.74;55.29
25420;BME280;13354;48.174;11.566;2023-04-30T09:55:57;95930.53;;;16.23;55.49
25420;BME280;13354;48.174;11.566;2023-04-30T09:58:26;95941.38;;;16.10;56.66
25420;BME280;13354;48.174;11.566;2023-04-30T10:00:52;95929.56;;;15.99;57.28
25420;BME280;13354;48.174;11.566;2023-04-30T10:03:18;95942.47;;;15.77;56.89
25420;BME280;13354;48.174;11.566;2023-04-30T10:05:46;95934.41;;;15.52;56.98
25420;BME280;13354;48.174;11.566;2023-04-30T10:08:20;95943.78;;;15.36;57.56
25420;BME280;13354;48.174;11.566;2023-04-30T10:10:49;95941.16;;;15.30;57.56
25420;BME280;13354;48.174;11.566;2023-04-30T10:13:17;95941.38;;;15.28;58.12
25420;BME280;13354;48.174;11.566;2023-04-30T10:15:53;95937.16;;;15.39;58.23
25420;BME280;13354;48.174;11.566;2023-04-30T10:18:27;95934.81;;;15.56;57.78
25420;BME280;13354;48.174;11.566;2023-04-30T10:20:52;95930.28;;;15.56;56.91
25420;BME280;13354;48.174;11.566;2023-04-30T10:23:20;95928.94;;;15.47;57.49
25420;BME280;13354;48.174;11.566;2023-04-30T10:25:45;95921.22;;;15.57;57.44
25420;BME280;13354;48.174;11.566;2023-04-30T10:28:11;95922.28;;;15.56;57.28
25420;BME280;13354;48.174;11.566;2023-04-30T10:30:37;95919.56;;;15.63;56.34
25420;BME280;13354;48.174;11.566;2023-04-30T10:33:09;95910.50;;;15.70;55.99
25420;BME280;13354;48.174;11.566;2023-04-30T10:35:58;95899.25;;;15.68;55.42
25420;BME280;13354;48.174;11.566;2023-04-30T10:38:26;95906.59;;;15.73;55.03
25420;BME280;13354;48.174;11.566;2023-04-30T10:40:55;95909.88;;;15.93;54.89
25420;BME280;13354;48.174;11.566;2023-04-30T10:43:24;95908.19;;;15.99;55.64
25420;BME280;13354;48.174;11.566;2023-04-30T10:45:49;95902.06;;;16.17;53.92
25420;BME280;13354;48.174;11.566;2023-04-30T10:48:15;95897.75;;;16.34;53.67
25420;BME280;13354;48.174;11.566;2023-04-30T10:50:48;95898.50;;;16.41;53.37
25420;BME280;13354;48.174;11.566;2023-04-30T10:53:16;95893.88;;;16.67;53.55
25420;BME280;13354;48.174;11.566;2023-04-30T10:56:00;95890.84;;;16.82;52.86
25420;BME280;13354;48.174;11.566;2023-04-30T10:58:31;95892.25;;;17.14;52.23
25420;BME280;13354;48.174;11.566;2023-04-30T11:01:16;95891.44;;;17.14;50.97
25420;BME280;13354;48.174;11.566;2023-04-30T11:03:42;95892.91;;;16.98;51.03
25420;BME280;13354;48.174;11.566;2023-04-30T11:06:27;95880.66;;;16.90;51.66
25420;BME280;13354;48.174;11.566;2023-04-30T11:09:11;95887.59;;;16.80;51.44
25420;BME280;13354;48.174;11.566;2023-04-30T11:11:37;95882.25;;;16.80;50.88
25420;BME280;13354;48.174;11.566;2023-04-30T11:14:02;95885.03;;;16.85;51.13
25420;BME280;13354;48.174;11.566;2023-04-30T11:16:32;95881.16;;;16.99;51.73
25420;BME280;13354;48.174;11.566;2023-04-30T11:19:19;95872.16;;;17.24;51.05
25420;BME280;13354;48.174;11.566;2023-04-30T11:27:11;95871.69;;;17.92;48.58
25420;BME280;13354;48.174;11.566;2023-04-30T11:29:36;95865.63;;;18.08;47.95
25420;BME280;13354;48.174;11.566;2023-04-30T11:32:03;95857.81;;;18.82;47.74
25420;BME280;13354;48.174;11.566;2023-04-30T11:34:28;95858.97;;;19.03;45.00
25420;BME280;13354;48.174;11.566;2023-04-30T11:36:54;95852.34;;;19.23;44.83
25420;BME280;13354;48.174;11.566;2023-04-30T11:39:22;95856.41;;;19.25;45.02
25420;BME280;13354;48.174;11.566;2023-04-30T11:41:48;95858.09;;;18.98;46.04
25420;BME280;13354;48.174;11.566;2023-04-30T11:44:27;95859.47;;;18.60;46.10
25420;BME280;13354;48.174;11.566;2023-04-30T11:46:53;95856.16;;;18.41;47.31
25420;BME280;13354;48.174;11.566;2023-04-30T11:49:21;95859.53;;;18.37;47.49
25420;BME280;13354;48.174;11.566;2023-04-30T11:51:49;95861.56;;;18.58;46.67
25420;BME280;13354;48.174;11.566;2023-04-30T11:54:15;95857.91;;;18.35;45.80
25420;BME280;13354;48.174;11.566;2023-04-30T11:56:45;95868.06;;;18.10;46.41
25420;BME280;13354;48.174;11.566;2023-04-30T11:59:12;95856.63;;;18.38;47.95
25420;BME280;13354;48.174;11.566;2023-04-30T12:01:37;95853.00;;;18.32;48.45
25420;BME280;13354;48.174;11.566;2023-04-30T12:04:02;95846.59;;;18.22;47.91
25420;BME280;13354;48.174;11.566;2023-04-30T12:06:28;95857.47;;;18.03;47.11
25420;BME280;13354;48.174;11.566;2023-04-30T12:08:54;95861.09;;;17.97;47.89
25420;BME280;13354;48.174;11.566;2023-04-30T12:11:20;95862.34;;;17.71;47.57
25420;BME280;13354;48.174;11.566;2023-04-30T12:13:50;95863.38;;;17.70;47.53
25420;BME280;13354;48.174;11.566;2023-04-30T12:16:15;95863.56;;;17.45;48.60
25420;BME280;13354;48.174;11.566;2023-04-30T12:18:41;95860.78;;;17.52;49.63
25420;BME280;13354;48.174;11.566;2023-04-30T12:21:06;95854.19;;;17.54;49.82
25420;BME280;13354;48.174;11.566;2023-04-30T12:23:31;95858.91;;;17.29;49.85
25420;BME280;13354;48.174;11.566;2023-04-30T12:25:58;95858.94;;;17.52;49.88
25420;BME280;13354;48.174;11.566;2023-04-30T12:28:23;95864.38;;;17.34;49.55
25420;BME280;13354;48.174;11.566;2023-04-30T12:30:48;95858.91;;;17.29;49.96
25420;BME280;13354;48.174;11.566;2023-04-30T12:33:15;95848.94;;;16.94;49.53
25420;BME280;13354;48.174;11.566;2023-04-30T12:35:41;95850.59;;;17.07;50.01
25420;BME280;13354;48.174;11.566;2023-04-30T12:38:07;95854.81;;;16.84;49.72
25420;BME280;13354;48.174;11.566;2023-04-30T12:40:33;95843.16;;;16.79;49.83
25420;BME280;13354;48.174;11.566;2023-04-30T12:42:59;95846.81;;;16.66;50.70
25420;BME280;13354;48.174;11.566;2023-04-30T12:48:09;95843.09;;;16.97;49.70
25420;BME280;13354;48.174;11.566;2023-04-30T12:50:35;95850.03;;;17.05;49.67
25420;BME280;13354;48.174;11.566;2023-04-30T12:53:01;95850.59;;;17.07;49.42
25420;BME280;13354;48.174;11.566;2023-04-30T12:55:26;95838.19;;;17.12;49.52
25420;BME280;13354;48.174;11.566;2023-04-30T12:58:06;95825.28;;;17.33;48.80
25420;BME280;13354;48.174;11.566;2023-04-30T13:00:45;95827.03;;;17.27;48.59
25420;BME280;13354;48.174;11.566;2023-04-30T13:03:11;95827.63;;;17.41;48.88
25420;BME280;13354;48.174;11.566;2023-04-30T13:05:36;95823.31;;;17.52;48.69